Time;durP1;ratioP1;P1;durP2;ratioP2;P2;SDS_P1;SDS_P2;PMS_P1;PMS_P2;Temp;Humidity;BMP_temperature;BMP_pressure;BME280_temperature;BME280_humidity;BME280_pressure;Samples;Min_cycle;Max_cycle;Signal;HPM_P1;HPM_P2
2022/04/29 00:04:26;;;;;;;10.02;4.60;;;;;;;8.14;61.36;101842.97;8582669;33;20473;-75
2022/04/29 00:09:30;;;;;;;9.25;4.60;;;;;;;8.11;61.44;101845.81;8580618;33;20413;-75
2022/04/29 00:14:34;;;;;;;13.15;5.60;;;;;;;8.05;61.48;101840.75;8577435;33;20150;-75
2022/04/29 00:19:37;;;;;;;12.23;5.38;;;;;;;8.03;61.59;101839.94;8577880;33;20519;-75
2022/04/29 00:24:41;;;;;;;12.00;5.90;;;;;;;7.92;62.06;101845.81;8581512;33;20148;-75
2022/04/29 00:29:45;;;;;;;11.85;5.13;;;;;;;7.70;62.57;101834.38;8582656;33;20468;-75
2022/04/29 00:34:49;;;;;;;11.43;4.93;;;;;;;7.76;62.76;101842.09;8581434;33;20194;-75
2022/04/29 00:39:52;;;;;;;11.13;6.03;;;;;;;7.66;63.10;101838.13;8582363;33;20144;-75
2022/04/29 00:44:57;;;;;;;12.82;6.57;;;;;;;7.65;62.77;101841.72;8559848;33;20398;-75
2022/04/29 00:50:00;;;;;;;12.10;6.10;;;;;;;7.58;63.58;101838.47;8579017;33;20547;-74
2022/04/29 00:55:08;;;;;;;11.98;5.50;;;;;;;7.54;63.52;101825.31;8577270;33;20153;-75
2022/04/29 01:00:15;;;;;;;10.07;5.63;;;;;;;7.66;63.67;101832.78;8577986;33;20439;-75
2022/04/29 01:05:21;;;;;;;11.07;6.00;;;;;;;7.72;63.38;101822.66;8578355;33;20949;-75
2022/04/29 01:10:25;;;;;;;17.60;7.38;;;;;;;7.78;63.36;101812.63;8604555;33;20527;-74
2022/04/29 01:15:31;;;;;;;14.55;6.57;;;;;;;7.79;63.13;101807.22;8579667;33;20135;-75
2022/04/29 01:20:35;;;;;;;12.20;5.95;;;;;;;7.68;63.14;101796.16;8582041;33;20174;-75
2022/04/29 01:25:41;;;;;;;11.68;6.60;;;;;;;7.76;63.06;101791.28;8582395;33;20416;-75
2022/04/29 01:30:46;;;;;;;11.88;5.90;;;;;;;7.80;63.14;101795.56;8587633;33;20159;-75
2022/04/29 01:35:49;;;;;;;12.93;6.18;;;;;;;7.62;63.28;101807.09;8583073;33;20448;-75
2022/04/29 01:40:55;;;;;;;14.10;6.20;;;;;;;7.64;63.52;101803.44;8579682;33;20148;-75
2022/04/29 01:46:05;;;;;;;14.23;6.32;;;;;;;7.50;63.75;101801.38;8578949;33;20243;-74
2022/04/29 01:51:31;;;;;;;10.93;5.82;;;;;;;7.27;64.52;101810.47;8578367;33;20166;-75
2022/04/29 01:56:35;;;;;;;11.20;6.40;;;;;;;7.23;65.24;101797.28;8599441;33;20421;-76
2022/04/29 02:01:40;;;;;;;13.45;6.38;;;;;;;7.16;65.23;101798.47;8585227;33;20412;-75
2022/04/29 02:06:44;;;;;;;17.92;7.50;;;;;;;7.11;65.46;101789.81;8606045;33;20133;-75
2022/04/29 02:17:24;;;;;;;12.77;6.82;;;;;;;7.33;64.89;101781.72;8575517;33;20152;-75
2022/04/29 02:22:27;;;;;;;13.95;7.88;;;;;;;7.17;65.25;101773.50;8602511;33;21119;-76
2022/04/29 02:27:32;;;;;;;16.17;6.90;;;;;;;7.19;65.60;101768.97;8583063;33;20519;-76
2022/04/29 02:32:35;;;;;;;11.25;7.25;;;;;;;7.18;65.05;101760.06;8595180;33;20446;-76
2022/04/29 02:37:40;;;;;;;17.15;7.78;;;;;;;7.20;65.37;101762.69;8597074;33;20148;-74
2022/04/29 02:42:44;;;;;;;16.45;8.07;;;;;;;7.18;65.57;101765.41;8621321;33;20259;-75
2022/04/29 02:47:49;;;;;;;18.35;7.97;;;;;;;6.95;65.83;101754.91;8597441;33;20771;-75
2022/04/29 02:52:52;;;;;;;15.07;7.05;;;;;;;6.82;66.24;101752.72;8584844;33;21009;-75
2022/04/29 02:57:56;;;;;;;14.23;7.40;;;;;;;6.95;66.14;101741.53;8607596;33;20148;-75
2022/04/29 03:02:59;;;;;;;15.75;7.18;;;;;;;6.78;66.68;101735.09;8582616;33;20519;-75
2022/04/29 03:08:03;;;;;;;17.80;7.25;;;;;;;6.75;66.70;101737.03;8579291;33;20148;-74
2022/04/29 03:13:07;;;;;;;16.55;7.93;;;;;;;6.64;67.11;101737.50;8577796;33;20969;-75
2022/04/29 03:18:20;;;;;;;14.52;7.25;;;;;;;6.75;66.66;101718.34;8579345;33;20488;-75
2022/04/29 03:23:23;;;;;;;17.35;6.95;;;;;;;6.68;66.99;101720.41;8582742;33;21092;-75
2022/04/29 03:28:29;;;;;;;17.85;8.00;;;;;;;6.62;66.78;101721.53;8577277;33;20231;-73
2022/04/29 03:33:35;;;;;;;16.48;7.32;;;;;;;6.53;67.54;101721.09;8575959;33;20423;-73
2022/04/29 03:38:38;;;;;;;21.50;8.02;;;;;;;6.42;67.47;101720.63;8576572;33;20414;-74
2022/04/29 03:43:44;;;;;;;17.85;8.52;;;;;;;6.49;67.63;101717.66;8576296;33;20171;-73
2022/04/29 03:54:27;;;;;;;15.90;7.32;;;;;;;6.44;67.78;101722.31;8576657;33;20185;-73
2022/04/29 03:59:35;;;;;;;15.85;7.78;;;;;;;6.43;67.69;101727.72;8572903;33;20143;-73
2022/04/29 04:04:39;;;;;;;16.35;7.63;;;;;;;6.45;67.76;101725.88;8573805;33;21030;-74
2022/04/29 04:09:42;;;;;;;15.65;8.18;;;;;;;6.46;67.61;101724.94;8578223;33;20433;-74
2022/04/29 04:14:48;;;;;;;14.93;7.38;;;;;;;6.47;68.05;101734.66;8586312;33;20984;-75
2022/04/29 04:19:51;;;;;;;15.20;7.78;;;;;;;6.42;68.11;101724.19;8588960;33;20144;-74
2022/04/29 04:24:54;;;;;;;18.10;7.82;;;;;;;6.52;68.30;101730.00;8590151;33;20144;-74
2022/04/29 04:29:59;;;;;;;19.80;9.25;;;;;;;6.53;68.52;101729.09;8582851;33;20158;-73
2022/04/29 04:35:02;;;;;;;18.13;8.70;;;;;;;6.61;68.36;101730.50;8578446;33;20160;-74
2022/04/29 04:40:07;;;;;;;17.30;8.10;;;;;;;6.63;68.26;101728.59;8575893;33;20877;-74
2022/04/29 04:45:22;;;;;;;16.40;7.43;;;;;;;6.65;68.20;101730.34;8597749;33;20253;-73
2022/04/29 04:50:45;;;;;;;16.30;8.73;;;;;;;6.77;68.16;101733.34;8575532;33;20845;-73
2022/04/29 04:55:49;;;;;;;19.17;8.65;;;;;;;6.75;68.07;101737.91;8573414;33;20416;-73
2022/04/29 05:00:53;;;;;;;16.52;8.43;;;;;;;6.87;68.23;101735.63;8573163;33;20151;-72
2022/04/29 05:06:15;;;;;;;26.35;10.02;;;;;;;7.02;68.00;101738.53;8573424;33;20419;-73
2022/04/29 05:11:22;;;;;;;20.67;9.00;;;;;;;7.03;67.81;101736.72;8599937;33;20152;-75
2022/04/29 05:16:57;;;;;;;18.27;8.80;;;;;;;7.03;67.85;101742.06;8578676;33;20530;-73
2022/04/29 05:22:20;;;;;;;24.10;9.10;;;;;;;7.11;67.83;101736.38;8581402;33;20415;-73
2022/04/29 05:27:23;;;;;;;19.02;8.85;;;;;;;7.11;67.97;101734.56;8579355;33;20546;-73
2022/04/29 05:32:46;;;;;;;23.70;9.27;;;;;;;7.28;67.72;101733.78;8580554;33;20148;-74
2022/04/29 05:38:08;;;;;;;25.75;10.32;;;;;;;7.37;67.93;101728.03;8579626;33;20648;-73
2022/04/29 05:43:11;;;;;;;25.42;10.60;;;;;;;7.45;67.56;101727.66;8599479;33;20444;-73
2022/04/29 05:48:16;;;;;;;23.85;9.95;;;;;;;7.60;67.62;101721.63;8578067;33;20541;-73
2022/04/29 05:53:19;;;;;;;20.60;9.88;;;;;;;7.84;67.12;101718.69;8572164;33;20426;-74
2022/04/29 05:58:33;;;;;;;25.08;10.32;;;;;;;7.90;66.47;101716.59;8569547;33;20233;-73
2022/04/29 06:04:16;;;;;;;21.15;9.70;;;;;;;7.95;66.49;101716.34;8569283;33;20162;-73
2022/04/29 06:09:19;;;;;;;21.65;9.45;;;;;;;7.79;66.28;101723.38;8570222;33;20435;-73
2022/04/29 06:14:22;;;;;;;20.63;8.98;;;;;;;7.85;67.08;101737.34;8574007;33;20531;-73
2022/04/29 06:19:45;;;;;;;21.10;9.23;;;;;;;7.72;66.83;101733.53;8535840;33;20170;-74
2022/04/29 06:25:20;;;;;;;22.80;10.52;;;;;;;7.83;66.77;101733.88;8501851;33;20521;-73
2022/04/29 06:30:24;;;;;;;23.80;10.48;;;;;;;7.92;67.38;101724.53;8514723;33;20432;-73
2022/04/29 06:36:15;;;;;;;24.25;10.38;;;;;;;8.17;66.71;101730.44;8517253;33;21148;-73
2022/04/29 06:41:21;;;;;;;7.93;4.75;;;;;;;8.72;66.62;101723.22;8513298;33;21326;-73
2022/04/29 06:46:34;;;;;;;18.00;7.57;;;;;;;10.00;62.61;101728.75;8514369;33;20125;-73
2022/04/29 06:52:08;;;;;;;12.50;7.22;;;;;;;10.32;60.83;101728.72;8465861;33;20155;-73
2022/04/29 06:57:20;;;;;;;16.77;7.70;;;;;;;10.44;60.52;101727.13;8518242;33;20640;-73
2022/04/29 07:02:24;;;;;;;17.27;9.23;;;;;;;10.40;59.66;101723.78;8516942;33;20464;-73
2022/04/29 07:07:29;;;;;;;13.88;7.55;;;;;;;10.69;59.58;101723.84;8544013;33;20656;-73
2022/04/29 07:12:47;;;;;;;19.20;8.80;;;;;;;10.87;59.03;101705.75;8525311;33;21151;-72
2022/04/29 07:17:50;;;;;;;24.58;9.40;;;;;;;10.93;58.85;101700.84;8519596;33;20450;-73
2022/04/29 07:22:55;;;;;;;19.67;9.45;;;;;;;10.95;58.90;101704.31;8520305;33;20423;-74
2022/04/29 07:27:58;;;;;;;21.48;9.05;;;;;;;10.95;57.64;101708.81;8519859;33;21046;-74
2022/04/29 07:33:01;;;;;;;19.70;9.50;;;;;;;11.03;58.93;101706.53;8516232;33;20445;-74
2022/04/29 07:44:01;;;;;;;23.08;9.48;;;;;;;11.73;56.76;101704.75;8527141;33;20173;-74
2022/04/29 07:49:08;;;;;;;20.67;8.90;;;;;;;12.12;56.14;101723.75;8547320;33;20421;-74
2022/04/29 07:54:13;;;;;;;26.00;9.82;;;;;;;12.02;54.60;101710.06;8543305;33;20153;-75
2022/04/29 07:59:17;;;;;;;20.77;9.43;;;;;;;12.33;55.28;101695.41;8542443;33;20538;-74
2022/04/29 08:04:21;;;;;;;17.90;9.63;;;;;;;12.54;54.67;101692.25;8518922;33;20568;-74
2022/04/29 08:09:25;;;;;;;18.95;8.90;;;;;;;13.12;53.40;101680.06;8517555;33;20215;-74
2022/04/29 08:14:28;;;;;;;20.00;9.20;;;;;;;13.49;51.86;101686.41;8526455;33;20431;-75
2022/04/29 08:20:09;;;;;;;18.95;8.85;;;;;;;13.21;52.61;101700.13;8545264;33;20193;-75
2022/04/29 08:25:19;;;;;;;18.45;8.90;;;;;;;13.56;53.14;101703.00;8537894;33;20423;-74
2022/04/29 08:30:24;;;;;;;19.40;9.48;;;;;;;14.21;50.77;101699.09;8531754;33;20753;-74
2022/04/29 08:35:28;;;;;;;22.83;8.63;;;;;;;14.30;49.73;101692.13;8524785;33;20149;-75
2022/04/29 08:40:32;;;;;;;16.48;9.13;;;;;;;14.48;50.07;101684.47;8523860;33;20148;-75
2022/04/29 08:45:37;;;;;;;20.60;9.13;;;;;;;14.64;50.07;101692.25;8502090;33;20424;-74
2022/04/29 08:51:00;;;;;;;18.10;8.95;;;;;;;15.02;48.44;101673.84;8526108;33;20235;-74
2022/04/29 09:01:26;;;;;;;22.55;9.18;;;;;;;15.22;48.22;101675.00;8538169;33;20258;-75
2022/04/29 09:06:29;;;;;;;17.48;8.50;;;;;;;14.97;48.21;101676.06;8537953;33;20504;-75
2022/04/29 09:11:34;;;;;;;22.38;10.20;;;;;;;14.74;48.43;101675.19;8538166;33;20414;-74
2022/04/29 09:16:46;;;;;;;21.17;10.20;;;;;;;14.44;50.07;101662.22;8537097;33;20149;-74
2022/04/29 09:22:05;;;;;;;27.98;12.18;;;;;;;14.65;50.05;101672.34;8531609;33;20558;-74
2022/04/29 09:27:18;;;;;;;24.98;12.75;;;;;;;14.28;50.55;101678.72;8529213;33;20144;-76
2022/04/29 09:32:47;;;;;;;22.63;12.95;;;;;;;14.20;51.05;101674.88;8526476;33;20420;-74
2022/04/29 09:43:51;;;;;;;24.52;14.15;;;;;;;15.29;48.66;101659.09;8523064;33;21105;-75
2022/04/29 09:49:04;;;;;;;24.60;13.73;;;;;;;15.93;47.93;101656.56;8520480;33;20539;-75
2022/04/29 09:54:17;;;;;;;30.15;14.23;;;;;;;16.44;45.46;101654.97;8523762;33;20690;-74
2022/04/29 09:59:22;;;;;;;25.55;14.43;;;;;;;16.88;46.53;101654.81;8522881;33;20176;-75
2022/04/29 10:04:25;;;;;;;23.00;12.77;;;;;;;16.78;44.97;101658.34;8522780;33;20615;-76
2022/04/29 10:09:33;;;;;;;20.30;13.20;;;;;;;16.64;45.61;101661.38;8522659;33;20526;-76
2022/04/29 10:14:40;;;;;;;22.35;12.40;;;;;;;16.65;45.37;101648.69;8519697;33;20533;-76
2022/04/29 10:25:27;;;;;;;22.02;11.95;;;;;;;15.55;46.82;101654.31;8523568;33;20144;-76
2022/04/29 10:30:33;;;;;;;23.85;12.50;;;;;;;15.28;47.56;101660.09;8521956;33;20141;-76
2022/04/29 10:35:53;;;;;;;23.27;12.60;;;;;;;15.43;47.48;101650.75;8521170;33;20552;-76
2022/04/29 10:41:12;;;;;;;26.05;13.13;;;;;;;15.34;47.75;101648.81;8522751;33;21000;-76
2022/04/29 10:46:22;;;;;;;22.02;11.95;;;;;;;15.18;47.64;101641.03;8519894;33;20644;-76
2022/04/29 10:51:52;;;;;;;22.92;12.02;;;;;;;15.06;48.55;101642.03;8542427;33;20429;-76
2022/04/29 10:57:02;;;;;;;17.85;11.50;;;;;;;14.96;49.02;101638.31;8514218;33;20439;-73
2022/04/29 11:02:13;;;;;;;23.85;11.57;;;;;;;15.04;48.54;101633.16;8513506;33;20454;-76
2022/04/29 11:07:43;;;;;;;18.63;10.23;;;;;;;15.04;48.48;101625.91;8514679;33;20140;-75
2022/04/29 11:12:59;;;;;;;14.57;9.63;;;;;;;15.21;48.28;101629.94;8514636;33;21178;-76
2022/04/29 11:18:25;;;;;;;18.30;11.05;;;;;;;14.88;48.03;101627.25;8522064;33;20414;-76
2022/04/29 11:28:55;;;;;;;18.13;9.98;;;;;;;14.91;48.42;101610.78;8525163;33;20144;-76
2022/04/29 11:34:18;;;;;;;18.52;10.18;;;;;;;14.74;48.94;101621.09;8526428;33;21028;-76
2022/04/29 11:39:21;;;;;;;16.13;10.13;;;;;;;14.86;48.90;101623.81;8525035;33;20137;-76
2022/04/29 11:44:34;;;;;;;16.05;10.45;;;;;;;15.15;48.98;101624.19;8525365;33;20145;-75
2022/04/29 11:49:39;;;;;;;21.50;10.25;;;;;;;15.49;48.03;101611.47;8521849;33;20552;-75
2022/04/29 11:54:53;;;;;;;19.10;9.90;;;;;;;15.90;47.39;101615.28;8527257;33;20437;-76
2022/04/29 11:59:56;;;;;;;18.17;10.05;;;;;;;17.03;45.49;101616.34;8535775;33;20152;-75
2022/04/29 12:05:06;;;;;;;15.68;10.00;;;;;;;17.41;44.17;101611.16;8524719;33;20680;-76
2022/04/29 12:10:17;;;;;;;21.77;10.45;;;;;;;16.95;45.28;101612.56;8524524;33;20403;-76
2022/04/29 12:15:25;;;;;;;16.30;8.73;;;;;;;16.57;44.82;101601.41;8524205;33;21097;-74
2022/04/29 12:20:30;;;;;;;19.60;9.23;;;;;;;16.44;44.80;101591.75;8525274;33;20511;-75
2022/04/29 12:25:38;;;;;;;13.02;8.45;;;;;;;16.11;45.42;101585.50;8524779;33;20504;-74
2022/04/29 12:36:18;;;;;;;14.45;8.30;;;;;;;15.53;46.86;101585.00;8538196;33;20145;-75
2022/04/29 12:41:27;;;;;;;20.40;8.50;;;;;;;15.34;46.99;101585.66;8538936;33;20141;-75
2022/04/29 12:46:31;;;;;;;11.65;7.70;;;;;;;15.37;47.03;101580.84;8540800;33;20547;-75
2022/04/29 12:51:36;;;;;;;16.30;6.72;;;;;;;15.17;47.32;101574.34;8540470;33;20145;-76
2022/04/29 12:56:42;;;;;;;12.00;6.95;;;;;;;15.42;46.63;101572.38;8543370;33;20431;-76
2022/04/29 13:01:47;;;;;;;9.60;6.25;;;;;;;15.78;45.57;101570.28;8547777;33;20857;-76
2022/04/29 13:07:06;;;;;;;11.02;6.55;;;;;;;15.95;44.96;101563.41;8567278;33;20437;-76
2022/04/29 13:12:11;;;;;;;13.48;6.63;;;;;;;15.81;44.26;101546.47;8545034;33;20148;-75
2022/04/29 13:17:24;;;;;;;11.88;5.90;;;;;;;15.69;44.44;101553.81;8559361;33;20459;-76
2022/04/29 13:22:28;;;;;;;17.13;5.82;;;;;;;15.42;44.51;101551.56;8538530;33;20141;-76
2022/04/29 13:27:34;;;;;;;11.68;6.45;;;;;;;15.24;44.43;101548.47;8526310;33;20436;-76
2022/04/29 13:32:37;;;;;;;10.55;6.18;;;;;;;15.42;44.52;101529.03;8534615;33;20659;-76
2022/04/29 13:37:42;;;;;;;14.05;5.85;;;;;;;15.91;43.75;101528.47;8526309;33;20247;-76
2022/04/29 13:42:45;;;;;;;11.52;5.72;;;;;;;16.31;42.50;101521.44;8522914;33;20171;-76
2022/04/29 13:47:48;;;;;;;9.95;5.65;;;;;;;16.10;41.88;101524.16;8522296;33;20153;-76
2022/04/29 13:53:13;;;;;;;12.05;5.82;;;;;;;16.50;41.95;101521.53;8522116;33;20475;-75
2022/04/29 13:58:16;;;;;;;8.45;5.70;;;;;;;16.52;41.24;101514.13;8522113;33;20149;-75
2022/04/29 14:03:21;;;;;;;12.18;5.55;;;;;;;16.41;40.00;101507.97;8523394;33;20507;-74
2022/04/29 14:08:26;;;;;;;8.88;5.00;;;;;;;16.31;39.35;101510.59;8521608;33;20226;-75
2022/04/29 14:13:29;;;;;;;9.45;5.13;;;;;;;16.66;39.90;101498.50;8519033;33;20454;-77
2022/04/29 14:18:32;;;;;;;8.52;5.07;;;;;;;17.04;39.18;101500.47;8522076;33;20405;-76
2022/04/29 14:23:37;;;;;;;8.32;4.68;;;;;;;17.40;37.37;101503.53;8520947;33;20523;-76
2022/04/29 14:28:40;;;;;;;10.90;4.75;;;;;;;17.56;36.84;101482.09;8520959;33;20223;-75
2022/04/29 14:33:43;;;;;;;9.23;5.05;;;;;;;17.86;37.03;101472.06;8523584;33;20668;-76
2022/04/29 14:38:48;;;;;;;10.05;5.43;;;;;;;18.07;37.15;101478.22;8529242;33;20425;-75
2022/04/29 14:43:51;;;;;;;8.43;5.07;;;;;;;17.45;37.17;101476.81;8550618;33;20693;-75
2022/04/29 14:48:53;;;;;;;11.10;6.18;;;;;;;16.72;38.46;101482.50;8545884;33;20526;-76
2022/04/29 14:53:58;;;;;;;11.77;4.97;;;;;;;16.46;40.00;101459.59;8536002;33;20403;-75
2022/04/29 14:59:02;;;;;;;9.48;5.38;;;;;;;16.38;40.26;101459.41;8524927;33;20136;-75
2022/04/29 15:04:06;;;;;;;7.07;4.80;;;;;;;16.15;40.74;101473.97;8525277;33;20456;-75
2022/04/29 15:19:57;;;;;;;7.97;4.93;;;;;;;16.06;39.20;101453.09;8525446;33;20432;-75
2022/04/29 15:25:02;;;;;;;9.73;5.47;;;;;;;15.92;40.63;101450.72;8524734;33;20854;-75
2022/04/29 15:30:07;;;;;;;7.50;5.30;;;;;;;15.67;41.31;101439.31;8515221;33;20291;-76
2022/04/29 15:35:11;;;;;;;8.27;5.03;;;;;;;15.39;42.00;101440.81;8517797;33;20500;-76
2022/04/29 15:40:15;;;;;;;11.70;6.35;;;;;;;15.35;41.52;101442.03;8520241;33;20129;-76
2022/04/29 15:45:18;;;;;;;9.38;5.65;;;;;;;15.31;42.75;101424.31;8521176;33;20533;-74
2022/04/29 15:50:27;;;;;;;13.63;6.25;;;;;;;15.15;42.63;101421.19;8520271;33;20458;-76
2022/04/29 15:55:32;;;;;;;11.20;5.35;;;;;;;15.38;42.84;101419.28;8521820;33;20631;-76
2022/04/29 16:00:36;;;;;;;14.05;5.72;;;;;;;15.38;42.88;101416.56;8523496;33;20211;-77
2022/04/29 16:05:42;;;;;;;9.10;5.20;;;;;;;14.97;44.27;101424.44;8524135;33;20442;-75
2022/04/29 16:10:47;;;;;;;9.65;6.10;;;;;;;14.65;45.16;101434.38;8531607;33;21080;-77
2022/04/29 16:15:50;;;;;;;10.85;5.57;;;;;;;14.44;45.49;101436.97;8526890;33;20285;-76
2022/04/29 16:20:53;;;;;;;9.73;5.78;;;;;;;14.24;45.95;101431.31;8537851;33;20244;-75
2022/04/29 16:25:59;;;;;;;13.60;5.93;;;;;;;14.09;46.59;101440.63;8591048;33;20525;-78
2022/04/29 16:31:02;;;;;;;9.85;6.50;;;;;;;13.81;46.64;101436.53;8602568;33;20473;-77
2022/04/29 16:36:06;;;;;;;9.52;5.20;;;;;;;13.77;47.14;101430.53;8553956;33;20619;-76
2022/04/29 16:41:11;;;;;;;10.70;5.78;;;;;;;13.71;47.46;101423.78;8547340;33;20425;-77
2022/04/29 16:46:15;;;;;;;12.73;6.43;;;;;;;13.50;47.76;101420.03;8545719;33;20429;-77
2022/04/29 16:51:19;;;;;;;12.02;5.88;;;;;;;13.47;47.31;101434.63;8540761;33;20408;-77
2022/04/29 16:56:24;;;;;;;11.50;6.78;;;;;;;13.45;48.05;101441.09;8536827;33;20151;-77
2022/04/29 17:01:27;;;;;;;9.98;6.18;;;;;;;13.34;48.06;101439.19;8538294;33;20555;-77
2022/04/29 17:06:31;;;;;;;14.95;6.93;;;;;;;13.30;48.37;101442.22;8536281;33;21009;-77
2022/04/29 17:11:37;;;;;;;11.15;6.35;;;;;;;13.15;48.73;101444.25;8524757;33;20133;-76
2022/04/29 17:16:40;;;;;;;13.40;6.85;;;;;;;13.08;48.97;101432.19;8523354;33;20591;-76
2022/04/29 17:21:45;;;;;;;16.08;6.75;;;;;;;13.18;48.87;101433.25;8525197;33;20275;-76
2022/04/29 17:26:49;;;;;;;11.70;7.25;;;;;;;13.39;48.74;101431.66;8530357;33;20140;-77
2022/04/29 17:31:53;;;;;;;9.30;7.00;;;;;;;13.39;48.64;101428.94;8524987;33;20913;-76
2022/04/29 17:36:56;;;;;;;15.85;8.07;;;;;;;13.28;48.98;101431.56;8522445;33;20419;-75
2022/04/29 17:47:22;;;;;;;13.82;8.13;;;;;;;13.53;48.87;101429.72;8526626;33;20547;-77
2022/04/29 17:52:25;;;;;;;16.23;8.65;;;;;;;13.44;49.15;101428.59;8526274;33;20141;-76
2022/04/29 17:57:30;;;;;;;12.85;8.13;;;;;;;13.19;49.73;101433.13;8525590;33;20461;-76
2022/04/29 18:02:33;;;;;;;13.45;8.93;;;;;;;12.99;50.39;101445.41;8527874;33;21012;-77
2022/04/29 18:07:37;;;;;;;14.68;8.82;;;;;;;12.77;50.33;101437.19;8549073;33;20159;-76
2022/04/29 18:12:42;;;;;;;13.65;9.25;;;;;;;12.63;50.83;101440.03;8613617;33;20601;-77
2022/04/29 18:17:48;;;;;;;16.23;9.95;;;;;;;12.49;51.14;101451.81;8569207;33;20202;-76
2022/04/29 18:22:52;;;;;;;12.95;7.90;;;;;;;12.20;51.74;101453.88;8585956;33;20522;-76
2022/04/29 18:27:56;;;;;;;11.93;8.13;;;;;;;11.97;52.23;101466.28;8591574;33;20167;-75
2022/04/29 18:33:00;;;;;;;14.35;7.05;;;;;;;11.79;52.48;101479.16;8590621;33;20518;-76
2022/04/29 18:38:03;;;;;;;12.23;6.90;;;;;;;11.30;53.33;101487.88;8586366;33;20138;-76
2022/04/29 18:43:07;;;;;;;12.23;6.72;;;;;;;11.14;53.57;101491.59;8581062;33;20916;-76
2022/04/29 18:48:10;;;;;;;14.35;6.57;;;;;;;10.92;53.90;101497.50;8579964;33;20664;-74
2022/04/29 18:53:13;;;;;;;12.25;6.25;;;;;;;10.83;54.69;101504.31;8583405;33;20424;-76
2022/04/29 18:58:18;;;;;;;11.75;6.65;;;;;;;10.77;54.39;101506.53;8582625;33;20534;-76
2022/04/29 19:03:21;;;;;;;11.00;6.03;;;;;;;10.69;54.94;101504.31;8583546;33;20144;-74
2022/04/29 19:08:24;;;;;;;10.80;6.18;;;;;;;10.53;55.13;101503.56;8581539;33;20140;-75
2022/04/29 19:13:28;;;;;;;11.95;6.85;;;;;;;10.44;55.70;101505.00;8580912;33;20209;-74
2022/04/29 19:18:32;;;;;;;10.40;5.90;;;;;;;10.32;56.21;101503.13;8582432;33;20405;-75
2022/04/29 19:23:36;;;;;;;10.20;5.80;;;;;;;10.05;56.31;101519.97;8582540;33;20451;-75
2022/04/29 19:28:41;;;;;;;10.80;6.35;;;;;;;9.96;56.78;101517.84;8581778;33;21094;-75
2022/04/29 19:33:46;;;;;;;10.07;5.75;;;;;;;10.00;56.52;101526.56;8574342;33;20474;-75
2022/04/29 19:38:52;;;;;;;11.23;5.80;;;;;;;9.79;57.16;101536.72;8571856;33;20424;-75
2022/04/29 19:43:56;;;;;;;10.57;5.65;;;;;;;9.66;57.47;101523.19;8578414;33;20187;-76
2022/04/29 19:49:00;;;;;;;9.40;5.63;;;;;;;9.52;57.42;101521.31;8564552;33;20565;-75
2022/04/29 19:54:04;;;;;;;11.77;5.63;;;;;;;9.55;57.41;101525.66;8574530;33;20421;-75
2022/04/29 19:59:11;;;;;;;8.15;5.55;;;;;;;9.26;57.59;101522.81;8575971;33;20424;-75
2022/04/29 20:04:18;;;;;;;7.40;4.97;;;;;;;9.23;57.62;101528.38;8575476;33;20518;-74
2022/04/29 20:09:22;;;;;;;9.90;5.45;;;;;;;9.13;57.64;101530.69;8574789;33;20167;-75
2022/04/29 20:14:27;;;;;;;9.05;5.53;;;;;;;9.17;57.70;101540.31;8577172;33;20549;-75
2022/04/29 20:19:31;;;;;;;10.05;5.90;;;;;;;9.10;57.66;101554.13;8580900;33;20670;-75
2022/04/29 20:24:34;;;;;;;9.10;5.50;;;;;;;9.20;57.66;101547.31;8582455;33;20574;-74
2022/04/29 20:29:38;;;;;;;8.25;5.45;;;;;;;9.06;57.67;101562.34;8581772;33;20523;-74
2022/04/29 20:34:42;;;;;;;8.55;5.93;;;;;;;8.88;58.09;101555.31;8577954;33;20423;-75
2022/04/29 20:45:09;;;;;;;11.52;5.72;;;;;;;8.60;59.49;101558.66;8578433;33;20246;-75
2022/04/29 20:50:12;;;;;;;11.10;5.78;;;;;;;8.60;59.77;101556.84;8581483;33;20668;-75
2022/04/29 20:55:16;;;;;;;9.80;5.80;;;;;;;8.60;59.97;101562.19;8558047;33;20190;-76
2022/04/29 21:00:21;;;;;;;12.30;6.00;;;;;;;8.52;60.41;101575.13;8584640;33;20160;-76
2022/04/29 21:05:25;;;;;;;10.13;5.75;;;;;;;8.56;60.42;101573.19;8607980;33;20406;-76
2022/04/29 21:10:28;;;;;;;10.48;6.15;;;;;;;8.47;60.77;101573.66;8593370;33;20198;-76
2022/04/29 21:15:34;;;;;;;9.63;6.18;;;;;;;8.37;61.06;101581.31;8578255;33;20152;-74
2022/04/29 21:20:38;;;;;;;11.10;6.47;;;;;;;8.30;61.58;101579.88;8588401;33;20206;-75
2022/04/29 21:25:41;;;;;;;10.98;5.57;;;;;;;8.27;61.51;101580.91;8637305;27;20405;-74
2022/04/29 21:30:57;;;;;;;10.10;5.50;;;;;;;8.21;61.52;101591.94;8712657;33;20444;-74
2022/04/29 21:36:01;;;;;;;10.45;6.80;;;;;;;8.07;61.75;101587.28;8700834;33;20328;-73
2022/04/29 21:41:04;;;;;;;9.93;6.05;;;;;;;8.05;61.88;101597.22;8698050;32;20204;-74
2022/04/29 21:46:09;;;;;;;8.65;5.75;;;;;;;7.97;62.11;101596.72;8696576;33;20652;-74
2022/04/29 21:51:14;;;;;;;10.93;6.10;;;;;;;7.97;62.11;101601.22;8700125;33;20412;-72
2022/04/29 21:56:17;;;;;;;10.15;5.90;;;;;;;7.78;62.78;101603.97;8703843;33;20503;-74
2022/04/29 22:01:22;;;;;;;12.80;6.18;;;;;;;7.78;62.69;101602.16;8702755;33;20497;-74
2022/04/29 22:06:26;;;;;;;13.68;6.88;;;;;;;7.79;62.89;101606.56;8703381;33;20153;-74
2022/04/29 22:11:29;;;;;;;12.07;5.75;;;;;;;7.69;62.99;101591.91;8699786;33;20767;-74
2022/04/29 22:16:33;;;;;;;10.95;5.50;;;;;;;7.65;63.26;101593.88;8700647;33;20153;-74
2022/04/29 22:21:36;;;;;;;11.32;5.75;;;;;;;7.67;63.15;101605.34;8698706;33;20415;-74
2022/04/29 22:26:41;;;;;;;10.35;5.50;;;;;;;7.62;63.38;101606.53;8699232;33;20548;-74
2022/04/29 22:31:46;;;;;;;9.07;5.15;;;;;;;7.61;63.62;101594.09;8704079;33;20910;-74
2022/04/29 22:36:49;;;;;;;8.88;5.25;;;;;;;7.58;63.63;101586.25;8702148;33;20143;-74
2022/04/29 22:41:52;;;;;;;9.27;5.43;;;;;;;7.66;63.56;101595.59;8702245;32;20419;-74
2022/04/29 22:46:56;;;;;;;9.90;5.65;;;;;;;7.57;63.78;101598.75;8698213;33;20515;-74
2022/04/29 22:51:59;;;;;;;8.73;5.20;;;;;;;7.49;63.76;101595.59;8697379;33;20414;-74
2022/04/29 22:57:03;;;;;;;7.82;5.20;;;;;;;7.48;64.23;101602.72;8697687;33;20517;-74
2022/04/29 23:02:08;;;;;;;7.97;5.30;;;;;;;7.49;64.12;101588.41;8702107;33;20495;-74
2022/04/29 23:07:14;;;;;;;11.05;6.40;;;;;;;7.50;64.01;101587.47;8702861;33;20564;-73
2022/04/29 23:12:18;;;;;;;8.20;5.30;;;;;;;7.47;64.38;101592.09;8701671;33;20213;-74
2022/04/29 23:22:43;;;;;;;8.65;5.25;;;;;;;7.38;64.65;101581.88;8698650;33;20146;-74
2022/04/29 23:27:46;;;;;;;6.07;4.63;;;;;;;7.35;64.69;101582.00;8696504;33;20284;-74
2022/04/29 23:32:51;;;;;;;7.07;5.07;;;;;;;7.35;64.52;101576.66;8695783;33;20537;-74
2022/04/29 23:37:55;;;;;;;11.23;6.28;;;;;;;7.21;65.04;101575.53;8695171;33;20425;-74
2022/04/29 23:43:00;;;;;;;8.90;5.40;;;;;;;7.13;65.64;101572.38;8696034;33;20299;-74
2022/04/29 23:48:05;;;;;;;11.98;5.47;;;;;;;7.09;65.43;101569.91;8694819;33;20502;-74
2022/04/29 23:53:09;;;;;;;8.82;5.47;;;;;;;7.00;65.42;101564.06;8699314;33;20451;-74
2022/04/29 23:58:12;;;;;;;10.85;5.63;;;;;;;7.12;65.26;101572.41;8696867;33;20702;-74
